CN-0036 weather

Shantou Waisha Airport
Shantou, Guangdong Province, China

Public forecast

Using degrees Celsius for public forecast. Weather courtesy of forecast.io.

METAR (pilot weather report)

Closest report is Jieyang Chaoshan International Airport, 16.1 nm (29.8 km) WNW. Retrieved 2019/05/22 10:00 UTC (5 minutes ago):

ZGOW 221000Z VRB02G08MPS 9999 FEW026TCU BKN040 25/17 Q1009 BECMG 4000 SHRA

TAF (pilot weather forecast)

Closest forecast is Jieyang Chaoshan International Airport, 16.1 nm (29.8 km) WNW. Retrieved 2019/05/22 06:03 UTC (4 hours ago):

TAF ZGOW 220303Z 2206/2306 11003MPS 6000 FEW020 BKN050 TX29/2206Z TN22/2222Z